Aérodrome :
LOGIN :

S'inscrire | Disclaimer

   EN    FR    IT 

 










Légende :    VFR   VFR Marginal   IFR   IFR Intensif   IFR Très Intensif
Visi : 
Plafond : 
>= 8 km
>= 3000ft
5 à 8 km
1000 à 3000 ft
1500m à 5 km
500 à 1000 ft
800 à 1500m
200 à 500 ft
< 800m
< 200 ft
Symboles :   Orages  Brouillard  Fortes neiges  Fortes précipitations  Vent > 20 kt
SIGMETs :   Divers  Orages  Givrage  Turbulence  Onde Orograph.  Cendres Volcan.






- Altitude de l'aérodrome : 870 ft
- Code IATA : ETZ


LFJL - Metz Nancy Lorraine

DERNIER METAR :
  • 241500Z AUTO 20010KT 9999 BKN028 BKN160 03/M03 Q1001 NOSIG

METARs EXPIRÉS :
  • 241430Z AUTO 21008KT 9999 BKN030 03/M02 Q1001 NOSIG
  • 241400Z AUTO 22012KT 9999 BKN029 BKN034 BKN180 03/M02 Q1002 NOSIG
  • 241330Z AUTO 23011KT 9999 BKN030 BKN170 03/M03 Q1002 NOSIG
  • 241300Z AUTO 25012KT 9999 SCT029 BKN180 02/M03 Q1002 NOSIG
  • 241230Z AUTO 24013KT 9999 OVC029 03/M03 Q1002 NOSIG

TAF TAF LFJL
Valide du 24 à 12h jusqu'au 25 à 12h UTC


241100Z 2412/2512 25012KT 9999 SCT020 BKN030
BECMG 2418/2420 -SN SCT015 BKN020
TEMPO 2420/2509 2500 OVC010
PROB40
TEMPO 2422/2509 OVC005
PROB30
TEMPO 2500/2505 1000 SN OVC003
BECMG 2509/2512 30010KT



MET'MAP, la Météo Aéronautique d'un coup d'oeil ! - Copyright ORBIFLY Décembre 2007 - Disclaimer

ORBIFLY MET'MAP TEAM :

Programmation & Développement : Alexandra Zaïnal
Sur une idée originale de : Baudouin d'Aumeries
Assistance à la programmation : Marc-Olivier Méhu
Soutien technique & logistique : Manuel Goepfert

Contact : metmap@orbifly.com




SOURCES & CREDITS :

   NOAA